Time,TemperatureF,DewpointF,PressureIn,WindDirection,WindDirectionDegrees,WindSpeedMPH,WindSpeedGustMPH,Humidity,HourlyPrecipIn,Conditions,Clouds,dailyrainin,SolarRadiationWatts/m^2,SoftwareType,DateUTC
2013-07-18 00:12:00,60.0,47.0,-100.00,West,278,13.0,19.0,62,-99.99,,,0.05,0.000000,,2013-07-18 06:12:00,
2013-07-18 00:22:00,60.0,47.0,-100.00,West,278,13.0,19.0,62,-99.99,,,0.05,0.000000,,2013-07-18 06:22:00,
2013-07-18 00:32:00,60.0,47.0,-100.00,West,278,13.0,19.0,62,-99.99,,,0.05,0.000000,,2013-07-18 06:32:00,
2013-07-18 00:43:00,60.0,47.0,-100.00,West,278,13.0,19.0,62,-99.99,,,0.05,0.000000,,2013-07-18 06:43:00,
2013-07-18 00:52:00,58.0,46.0,-100.00,WNW,288,10.0,19.0,65,0.00,,,0.05,0.000000,,2013-07-18 06:52:00,
2013-07-18 01:12:00,58.0,46.0,-100.00,WNW,288,10.0,19.0,65,0.00,,,0.05,0.000000,,2013-07-18 07:12:00,
2013-07-18 01:22:00,58.0,46.0,-100.00,WNW,288,10.0,19.0,65,0.00,,,0.05,0.000000,,2013-07-18 07:22:00,
2013-07-18 01:32:00,58.0,46.0,-100.00,WNW,288,10.0,19.0,65,0.00,,,0.05,0.000000,,2013-07-18 07:32:00,
2013-07-18 01:42:00,58.0,46.0,-100.00,WNW,288,10.0,19.0,65,0.00,,,0.05,0.000000,,2013-07-18 07:42:00,
2013-07-18 03:52:00,53.0,45.0,-100.00,WSW,251,6.0,9.0,73,-99.99,,,0.05,0.000000,,2013-07-18 09:52:00,
2013-07-18 04:21:00,53.0,45.0,-100.00,WSW,251,6.0,9.0,73,-99.99,,,0.05,0.000000,,2013-07-18 10:21:00,
2013-07-18 04:32:00,53.0,45.0,-100.00,WSW,251,6.0,9.0,73,-99.99,,,0.05,0.000000,,2013-07-18 10:32:00,
2013-07-18 04:43:00,53.0,45.0,-100.00,WSW,251,6.0,9.0,73,-99.99,,,0.05,0.000000,,2013-07-18 10:43:00,
2013-07-18 04:52:00,52.0,44.0,-100.00,West,274,5.0,9.0,75,0.00,,,0.05,0.000000,,2013-07-18 10:52:00,
2013-07-18 05:22:00,52.0,44.0,-100.00,West,274,5.0,9.0,75,0.00,,,0.05,0.000000,,2013-07-18 11:22:00,
2013-07-18 05:32:00,52.0,44.0,-100.00,West,274,5.0,9.0,75,0.00,,,0.05,0.000000,,2013-07-18 11:32:00,
2013-07-18 05:43:00,52.0,44.0,-100.00,West,274,5.0,9.0,75,0.00,,,0.05,0.000000,,2013-07-18 11:43:00,
2013-07-18 05:52:00,49.0,44.0,-100.00,WNW,286,3.0,8.0,83,0.00,,,0.05,1.000000,,2013-07-18 11:52:00,
2013-07-18 06:22:00,49.0,44.0,-100.00,WNW,286,3.0,8.0,83,0.00,,,0.05,1.000000,,2013-07-18 12:22:00,
2013-07-18 06:32:00,49.0,44.0,-100.00,WNW,286,3.0,8.0,83,0.00,,,0.05,1.000000,,2013-07-18 12:32:00,
2013-07-18 06:42:00,49.0,44.0,-100.00,WNW,286,3.0,8.0,83,0.00,,,0.05,1.000000,,2013-07-18 12:42:00,
2013-07-18 06:52:00,54.0,47.0,-100.00,West,262,4.0,7.0,76,0.00,,,0.05,64.000000,,2013-07-18 12:52:00,
2013-07-18 07:11:00,54.0,47.0,-100.00,West,262,4.0,7.0,76,0.00,,,0.05,64.000000,,2013-07-18 13:11:00,
2013-07-18 07:22:00,54.0,47.0,-100.00,West,262,4.0,7.0,76,0.00,,,0.05,64.000000,,2013-07-18 13:22:00,
2013-07-18 07:32:00,54.0,47.0,-100.00,West,262,4.0,7.0,76,0.00,,,0.05,64.000000,,2013-07-18 13:32:00,
2013-07-18 07:43:00,54.0,47.0,-100.00,West,262,4.0,7.0,76,0.00,,,0.05,64.000000,,2013-07-18 13:43:00,
2013-07-18 07:52:00,59.0,47.0,-100.00,West,277,7.0,11.0,65,0.00,,,0.05,178.000000,,2013-07-18 13:52:00,
2013-07-18 08:11:00,59.0,47.0,-100.00,West,277,7.0,11.0,65,0.00,,,0.05,178.000000,,2013-07-18 14:11:00,
2013-07-18 08:22:00,59.0,47.0,-100.00,West,277,7.0,11.0,65,0.00,,,0.05,178.000000,,2013-07-18 14:22:00,
2013-07-18 08:33:00,59.0,47.0,-100.00,West,277,7.0,11.0,65,0.00,,,0.05,178.000000,,2013-07-18 14:33:00,
2013-07-18 08:43:00,59.0,47.0,-100.00,West,277,7.0,11.0,65,0.00,,,0.05,178.000000,,2013-07-18 14:43:00,
2013-07-18 08:52:00,63.0,46.0,-100.00,WNW,289,9.0,14.0,54,0.00,,,0.05,461.000000,,2013-07-18 14:52:00,
2013-07-18 09:22:00,63.0,46.0,-100.00,WNW,289,9.0,14.0,54,0.00,,,0.05,461.000000,,2013-07-18 15:22:00,
2013-07-18 09:32:00,63.0,46.0,-100.00,WNW,289,9.0,14.0,54,0.00,,,0.05,461.000000,,2013-07-18 15:32:00,
2013-07-18 09:42:00,63.0,46.0,-100.00,WNW,289,9.0,14.0,54,0.00,,,0.05,461.000000,,2013-07-18 15:42:00,
2013-07-18 09:52:00,68.0,47.0,-100.00,West,259,8.0,14.0,47,0.00,,,-99.99,631.000000,,2013-07-18 15:52:00,
2013-07-18 10:11:00,68.0,47.0,-100.00,West,259,8.0,14.0,47,0.00,,,-99.99,631.000000,,2013-07-18 16:11:00,
2013-07-18 10:22:00,68.0,47.0,-100.00,West,259,8.0,14.0,47,0.00,,,-99.99,631.000000,,2013-07-18 16:22:00,
2013-07-18 10:32:00,68.0,47.0,-100.00,West,259,8.0,14.0,47,0.00,,,-99.99,631.000000,,2013-07-18 16:32:00,
2013-07-18 10:42:00,68.0,47.0,-100.00,West,259,8.0,14.0,47,0.00,,,-99.99,631.000000,,2013-07-18 16:42:00,
2013-07-18 10:52:00,67.0,46.0,-100.00,WSW,252,7.0,14.0,47,0.00,,,0.05,722.000000,,2013-07-18 16:52:00,
2013-07-18 11:11:00,67.0,46.0,-100.00,WSW,252,7.0,14.0,47,0.00,,,0.05,722.000000,,2013-07-18 17:11:00,
2013-07-18 11:22:00,67.0,46.0,-100.00,WSW,252,7.0,14.0,47,0.00,,,0.05,722.000000,,2013-07-18 17:22:00,
2013-07-18 11:33:00,67.0,46.0,-100.00,WSW,252,7.0,14.0,47,0.00,,,0.05,722.000000,,2013-07-18 17:33:00,
2013-07-18 11:43:00,67.0,46.0,-100.00,WSW,252,7.0,14.0,47,0.00,,,0.05,722.000000,,2013-07-18 17:43:00,
2013-07-18 11:52:00,73.0,46.0,-100.00,West,264,8.0,20.0,38,0.00,,,0.05,1030.000000,,2013-07-18 17:52:00,
2013-07-18 12:11:00,73.0,46.0,-100.00,West,264,8.0,20.0,38,0.00,,,0.05,1030.000000,,2013-07-18 18:11:00,
2013-07-18 12:22:00,73.0,46.0,-100.00,West,264,8.0,20.0,38,0.00,,,0.05,1030.000000,,2013-07-18 18:22:00,
2013-07-18 12:32:00,73.0,46.0,-100.00,West,264,8.0,20.0,38,0.00,,,0.05,1030.000000,,2013-07-18 18:32:00,
2013-07-18 12:43:00,73.0,46.0,-100.00,West,264,8.0,20.0,38,0.00,,,0.05,1030.000000,,2013-07-18 18:43:00,
2013-07-18 12:52:00,72.0,46.0,-100.00,ENE,58,10.0,15.0,40,0.00,,,0.05,917.000000,,2013-07-18 18:52:00,
2013-07-18 13:11:00,72.0,46.0,-100.00,ENE,58,10.0,15.0,40,0.00,,,0.05,917.000000,,2013-07-18 19:11:00,
2013-07-18 13:22:00,72.0,46.0,-100.00,ENE,58,10.0,15.0,40,0.00,,,0.05,917.000000,,2013-07-18 19:22:00,
2013-07-18 13:32:00,72.0,46.0,-100.00,ENE,58,10.0,15.0,40,0.00,,,0.05,917.000000,,2013-07-18 19:32:00,
2013-07-18 13:43:00,72.0,46.0,-100.00,ENE,58,10.0,15.0,40,0.00,,,0.05,917.000000,,2013-07-18 19:43:00,
2013-07-18 13:52:00,67.0,52.0,-100.00,NE,50,5.0,15.0,59,0.00,,,0.05,418.000000,,2013-07-18 19:52:00,
2013-07-18 14:11:00,67.0,52.0,-100.00,NE,50,5.0,15.0,59,0.00,,,0.05,418.000000,,2013-07-18 20:11:00,
2013-07-18 14:22:00,67.0,52.0,-100.00,NE,50,5.0,15.0,59,0.00,,,0.05,418.000000,,2013-07-18 20:22:00,
2013-07-18 14:32:00,67.0,52.0,-100.00,NE,50,5.0,15.0,59,0.00,,,0.05,418.000000,,2013-07-18 20:32:00,
2013-07-18 14:43:00,67.0,52.0,-100.00,NE,50,5.0,15.0,59,0.00,,,0.05,418.000000,,2013-07-18 20:43:00,
2013-07-18 14:52:00,63.0,58.0,-100.00,SSE,150,1.0,11.0,83,0.03,,,0.08,225.000000,,2013-07-18 20:52:00,
2013-07-18 15:11:00,63.0,58.0,-100.00,SSE,150,1.0,11.0,83,0.03,,,0.08,225.000000,,2013-07-18 21:11:00,
2013-07-18 15:22:00,63.0,58.0,-100.00,SSE,150,1.0,11.0,83,0.03,,,0.08,225.000000,,2013-07-18 21:22:00,
2013-07-18 15:32:00,63.0,58.0,-100.00,SSE,150,1.0,11.0,83,0.03,,,0.08,225.000000,,2013-07-18 21:32:00,
2013-07-18 15:43:00,63.0,58.0,-100.00,SSE,150,1.0,11.0,83,0.03,,,0.08,225.000000,,2013-07-18 21:43:00,
2013-07-18 16:32:00,57.0,54.0,-100.00,SE,137,2.0,11.0,91,0.11,,,0.19,64.000000,,2013-07-18 22:32:00,
2013-07-18 16:43:00,57.0,54.0,-100.00,SE,137,2.0,11.0,91,0.11,,,0.19,64.000000,,2013-07-18 22:43:00,
2013-07-18 16:52:00,65.0,53.0,-100.00,ENE,72,5.0,10.0,66,-99.99,,,0.14,451.000000,,2013-07-18 22:52:00,
2013-07-18 17:11:00,65.0,53.0,-100.00,ENE,72,5.0,10.0,66,-99.99,,,0.14,451.000000,,2013-07-18 23:11:00,
2013-07-18 17:22:00,65.0,53.0,-100.00,ENE,72,5.0,10.0,66,-99.99,,,0.14,451.000000,,2013-07-18 23:22:00,
2013-07-18 17:32:00,65.0,53.0,-100.00,ENE,72,5.0,10.0,66,-99.99,,,0.14,451.000000,,2013-07-18 23:32:00,
2013-07-18 17:42:00,65.0,53.0,-100.00,ENE,72,5.0,10.0,66,-99.99,,,0.14,451.000000,,2013-07-18 23:42:00,
2013-07-18 17:52:00,64.0,51.0,-100.00,ESE,115,4.0,8.0,62,0.00,,,0.14,500.000000,,2013-07-18 23:52:00,
2013-07-18 18:11:00,64.0,51.0,-100.00,ESE,115,4.0,8.0,62,0.00,,,0.14,500.000000,,2013-07-19 00:11:00,
2013-07-18 18:22:00,64.0,51.0,-100.00,ESE,115,4.0,8.0,62,0.00,,,0.14,500.000000,,2013-07-19 00:22:00,
2013-07-18 18:32:00,64.0,51.0,-100.00,ESE,115,4.0,8.0,62,0.00,,,0.14,500.000000,,2013-07-19 00:32:00,
2013-07-18 18:43:00,64.0,51.0,-100.00,ESE,115,4.0,8.0,62,0.00,,,0.14,500.000000,,2013-07-19 00:43:00,
2013-07-18 18:52:00,61.0,51.0,-100.00,NNE,26,3.0,6.0,70,0.00,,,0.14,110.000000,,2013-07-19 00:52:00,
2013-07-18 19:11:00,61.0,51.0,-100.00,NNE,26,3.0,6.0,70,0.00,,,0.14,110.000000,,2013-07-19 01:11:00,
2013-07-18 19:22:00,61.0,51.0,-100.00,NNE,26,3.0,6.0,70,0.00,,,0.14,110.000000,,2013-07-19 01:22:00,
2013-07-18 19:32:00,61.0,51.0,-100.00,NNE,26,3.0,6.0,70,0.00,,,0.14,110.000000,,2013-07-19 01:32:00,
2013-07-18 19:42:00,61.0,51.0,-100.00,NNE,26,3.0,6.0,70,0.00,,,0.14,110.000000,,2013-07-19 01:42:00,
2013-07-18 19:52:00,56.0,52.0,-100.00,South,186,4.0,7.0,86,0.01,,,0.15,22.000000,,2013-07-19 01:52:00,
2013-07-18 20:11:00,56.0,52.0,-100.00,South,186,4.0,7.0,86,0.01,,,0.15,22.000000,,2013-07-19 02:11:00,
2013-07-18 20:22:00,56.0,52.0,-100.00,South,186,4.0,7.0,86,0.01,,,0.15,22.000000,,2013-07-19 02:22:00,
2013-07-18 20:32:00,56.0,52.0,-100.00,South,186,4.0,7.0,86,0.01,,,0.15,22.000000,,2013-07-19 02:32:00,
2013-07-18 20:42:00,56.0,52.0,-100.00,South,186,4.0,7.0,86,0.01,,,0.15,22.000000,,2013-07-19 02:42:00,
2013-07-18 20:52:00,54.0,51.0,-100.00,NW,308,0.0,6.0,90,0.00,,,0.15,15.000000,,2013-07-19 02:52:00,
2013-07-18 21:11:00,54.0,51.0,-100.00,NW,308,0.0,6.0,90,0.00,,,0.15,15.000000,,2013-07-19 03:11:00,
2013-07-18 21:22:00,54.0,51.0,-100.00,NW,308,0.0,6.0,90,0.00,,,0.15,15.000000,,2013-07-19 03:22:00,
2013-07-18 21:32:00,54.0,51.0,-100.00,NW,308,0.0,6.0,90,0.00,,,0.15,15.000000,,2013-07-19 03:32:00,
2013-07-18 21:42:00,54.0,51.0,-100.00,NW,308,0.0,6.0,90,0.00,,,0.15,15.000000,,2013-07-19 03:42:00,
2013-07-18 21:52:00,51.0,49.0,-100.00,NE,40,0.0,5.0,94,0.00,,,-99.99,0.000000,,2013-07-19 03:52:00,
2013-07-18 22:12:00,51.0,49.0,-100.00,NE,40,0.0,5.0,94,0.00,,,-99.99,0.000000,,2013-07-19 04:12:00,
2013-07-18 22:22:00,51.0,49.0,-100.00,NE,40,0.0,5.0,94,0.00,,,-99.99,0.000000,,2013-07-19 04:22:00,
2013-07-18 22:33:00,51.0,49.0,-100.00,NE,40,0.0,5.0,94,0.00,,,-99.99,0.000000,,2013-07-19 04:33:00,
2013-07-18 22:44:00,51.0,49.0,-100.00,NE,40,0.0,5.0,94,0.00,,,-99.99,0.000000,,2013-07-19 04:44:00,
2013-07-18 22:52:00,48.0,47.0,-100.00,NW,305,0.0,1.0,96,0.00,,,0.15,0.000000,,2013-07-19 04:52:00,
2013-07-18 23:11:00,48.0,47.0,-100.00,NW,305,0.0,1.0,96,0.00,,,0.15,0.000000,,2013-07-19 05:11:00,
2013-07-18 23:22:00,48.0,47.0,-100.00,NW,305,0.0,1.0,96,0.00,,,0.15,0.000000,,2013-07-19 05:22:00,
2013-07-18 23:32:00,48.0,47.0,-100.00,NW,305,0.0,1.0,96,0.00,,,0.15,0.000000,,2013-07-19 05:32:00,
2013-07-18 23:43:00,48.0,47.0,-100.00,NW,305,0.0,1.0,96,0.00,,,0.15,0.000000,,2013-07-19 05:43:00,
2013-07-18 23:52:00,49.0,49.0,-100.00,SE,131,0.0,4.0,99,0.00,,,0.15,0.000000,,2013-07-19 05:52:00,